Afyon Airport Afyonkarahisar TR
ICAO: LTAH
IATA: AFY
Category: Medium
Scheduled Services: No

Elevation: 3310 ft
TransAlt. 12000 ft.

Airport Communications:
APP:122.1
TWR:122.1

LTAH Zoom In..

If you have problems with the map follow the link
https://www.worldairports.se/pages/airport.php?
ICAO=LTAH

Runways:

(A) RW 13L length 12008 ft width 148 ft
---- / hdg 130

(B) RW 13R length 9843 ft width 148 ft
---- / hdg 130

(C) RW 31L length 9843 ft width 148 ft
---- / hdg 310

(D) RW 31R length 12008 ft width 148 ft
---- / hdg 310

Location; LTAH
Day. 17 / Time. 13.50 Zulu
* QNH: 1013
* Temperature: 19° c. 66.2°f.
* Wind from: 130° Speed 05 kn.
Dewpoint: 17° c.
Visibility: 9000 m.
Clouds: Few 2500 ft.
Clouds: Scattered 3500 ft.
Clouds: Broken 9000 ft.

LTAH 171350Z 13005KT 9000 -TSRA FEW025CB SCT035 BKN090 19/17 Q1013 RETS RMK RWY13 16007KT


Wind From 130°
Speed 05 kn.

 
 
jpsmedia.com for Web Design worldairports.se 2019   terms of use